createdAt,value
2023-05-14T00:00:06.402Z,99286.03
2023-05-14T00:02:32.981Z,99281.53
2023-05-14T00:04:59.566Z,99288.38
2023-05-14T00:07:27.408Z,99282.44
2023-05-14T00:09:53.929Z,99275.75
2023-05-14T00:12:20.449Z,99278.25
2023-05-14T00:14:47.006Z,99279.38
2023-05-14T00:17:13.710Z,99273.94
2023-05-14T00:19:40.190Z,99275.56
2023-05-14T00:22:06.677Z,99270.72
2023-05-14T00:24:34.862Z,99264.34
2023-05-14T00:27:01.494Z,99263.84
2023-05-14T00:29:28.199Z,99257.91
2023-05-14T00:31:54.824Z,99262.84
2023-05-14T00:34:21.576Z,99251.03
2023-05-14T00:36:48.142Z,99248.13
2023-05-14T00:39:14.611Z,99247.94
2023-05-14T00:41:42.597Z,99248.03
2023-05-14T00:44:09.250Z,99250.25
2023-05-14T00:46:35.916Z,99236.53
2023-05-14T00:49:02.674Z,99234.91
2023-05-14T00:51:29.565Z,99230.09
2023-05-14T00:53:56.288Z,99238.22
2023-05-14T00:56:23.369Z,99225.50
2023-05-14T00:58:51.344Z,99226.59
2023-05-14T01:01:17.876Z,99230.59
2023-05-14T01:03:44.976Z,99229.50
2023-05-14T01:06:17.999Z,99225.69
2023-05-14T01:08:57.242Z,99230.81
2023-05-14T01:11:29.007Z,99227.59
2023-05-14T01:14:09.480Z,99231.41
2023-05-14T01:16:40.055Z,99227.91
2023-05-14T01:19:21.323Z,99227.69
2023-05-14T01:21:49.134Z,99229.94
2023-05-14T01:24:15.630Z,99225.91
2023-05-14T01:26:42.293Z,99227.81
2023-05-14T01:29:17.396Z,99233.03
2023-05-14T01:31:47.060Z,99233.53
2023-05-14T01:34:14.500Z,99230.63
2023-05-14T01:36:42.133Z,99227.91
2023-05-14T01:39:11.696Z,99231.75
2023-05-14T01:41:42.616Z,99225.84
2023-05-14T01:44:09.732Z,99225.03
2023-05-14T01:46:36.288Z,99225.13
2023-05-14T01:49:03.056Z,99227.66
2023-05-14T01:51:29.736Z,99229.38
2023-05-14T01:53:56.195Z,99222.97
2023-05-14T01:56:24.277Z,99228.19
2023-05-14T01:58:50.833Z,99227.66
2023-05-14T02:01:17.436Z,99223.97
2023-05-14T02:03:44.240Z,99228.09
2023-05-14T02:06:10.748Z,99230.78
2023-05-14T02:08:37.432Z,99223.59
2023-05-14T02:11:04.086Z,99229.78
2023-05-14T02:13:31.980Z,99224.19
2023-05-14T02:15:58.602Z,99222.06
2023-05-14T02:18:25.391Z,99216.16
2023-05-14T02:20:51.888Z,99215.69
2023-05-14T02:23:18.719Z,99212.47
2023-05-14T02:25:46.014Z,99220.59
2023-05-14T02:28:12.479Z,99214.16
2023-05-14T02:30:40.434Z,99215.25
2023-05-14T02:33:07.028Z,99206.75
2023-05-14T02:35:33.802Z,99203.06
2023-05-14T02:38:00.285Z,99206.06
2023-05-14T02:40:26.947Z,99207.44
2023-05-14T02:42:53.470Z,99201.25
2023-05-14T02:45:20.094Z,99199.13
2023-05-14T02:47:47.955Z,99202.97
2023-05-14T02:50:14.623Z,99207.88
2023-05-14T02:52:41.159Z,99204.66
2023-05-14T02:55:08.522Z,99198.66
2023-05-14T02:57:34.997Z,99197.34
2023-05-14T03:00:01.528Z,99196.31
2023-05-14T03:02:28.724Z,99192.03
2023-05-14T03:04:57.037Z,99197.44
2023-05-14T03:07:23.684Z,99198.84
2023-05-14T03:09:50.307Z,99199.13
2023-05-14T03:12:16.978Z,99198.34
2023-05-14T03:14:43.858Z,99198.53
2023-05-14T03:17:10.394Z,99202.84
2023-05-14T03:19:36.950Z,99195.84
2023-05-14T03:22:05.088Z,99199.66
2023-05-14T03:24:31.726Z,99197.75
2023-05-14T03:26:58.183Z,99200.16
2023-05-14T03:29:24.730Z,99203.63
2023-05-14T03:31:51.410Z,99209.38
2023-05-14T03:34:17.963Z,99203.44
2023-05-14T03:36:44.439Z,99200.34
2023-05-14T03:39:12.423Z,99199.53
2023-05-14T03:41:38.954Z,99201.44
2023-05-14T03:44:05.544Z,99204.94
2023-05-14T03:46:32.205Z,99216.28
2023-05-14T03:48:58.804Z,99209.47
2023-05-14T03:51:25.362Z,99207.25
2023-05-14T03:53:51.846Z,99206.66
2023-05-14T03:56:19.732Z,99200.66
2023-05-14T03:58:46.232Z,99202.44
2023-05-14T04:01:12.755Z,99203.44
2023-05-14T04:03:39.702Z,99204.44
2023-05-14T04:06:06.582Z,99204.66
2023-05-14T04:08:33.231Z,99203.44
2023-05-14T04:10:59.786Z,99198.72
2023-05-14T04:13:27.626Z,99197.72
2023-05-14T04:15:54.165Z,99200.31
2023-05-14T04:18:20.741Z,99195.19
2023-05-14T04:20:47.398Z,99200.66
2023-05-14T04:23:13.922Z,99192.91
2023-05-14T04:25:40.600Z,99199.81
2023-05-14T04:28:07.081Z,99200.50
2023-05-14T04:30:34.946Z,99202.19
2023-05-14T04:33:01.469Z,99203.06
2023-05-14T04:35:28.232Z,99201.50
2023-05-14T04:37:54.799Z,99205.38
2023-05-14T04:40:21.942Z,99216.28
2023-05-14T04:42:48.718Z,99207.41
2023-05-14T04:45:15.444Z,99210.47
2023-05-14T04:47:43.319Z,99210.53
2023-05-14T04:50:10.062Z,99213.63
2023-05-14T04:52:36.808Z,99223.53
2023-05-14T04:55:03.558Z,99210.50
2023-05-14T04:57:30.039Z,99213.06
2023-05-14T04:59:56.530Z,99210.03
2023-05-14T05:02:23.242Z,99207.53
2023-05-14T05:04:51.154Z,99218.13
2023-05-14T05:07:17.663Z,99209.22
2023-05-14T05:09:44.382Z,99200.31
2023-05-14T05:12:10.849Z,99216.94
2023-05-14T05:14:37.379Z,99215.50
2023-05-14T05:17:04.240Z,99211.72
2023-05-14T05:19:42.551Z,99206.78
2023-05-14T05:22:12.064Z,99211.56
2023-05-14T05:24:38.798Z,99209.66
2023-05-14T05:27:05.889Z,99217.84
2023-05-14T05:29:32.447Z,99213.38
2023-05-14T05:31:59.263Z,99215.00
2023-05-14T05:34:25.929Z,99211.78
2023-05-14T05:36:52.455Z,99207.97
2023-05-14T05:39:20.286Z,99206.03
2023-05-14T05:41:46.842Z,99202.22
2023-05-14T05:44:13.512Z,99212.91
2023-05-14T05:46:40.182Z,99203.00
2023-05-14T05:49:06.693Z,99208.94
2023-05-14T05:51:33.355Z,99209.41
2023-05-14T05:53:59.863Z,99212.56
2023-05-14T05:56:27.727Z,99213.72
2023-05-14T05:58:54.285Z,99217.06
2023-05-14T06:01:20.875Z,99213.69
2023-05-14T06:03:48.714Z,99213.19
2023-05-14T06:06:15.369Z,99207.56
2023-05-14T06:08:42.041Z,99208.19
2023-05-14T06:11:08.550Z,99209.94
2023-05-14T06:13:36.454Z,99210.09
2023-05-14T06:16:03.003Z,99205.13
2023-05-14T06:18:29.665Z,99207.34
2023-05-14T06:20:56.192Z,99216.28
2023-05-14T06:23:22.752Z,99218.13
2023-05-14T06:25:50.767Z,99210.56
2023-05-14T06:28:17.632Z,99210.53
2023-05-14T06:30:45.485Z,99212.16
2023-05-14T06:33:12.004Z,99209.13
2023-05-14T06:35:38.552Z,99209.72
2023-05-14T06:38:05.089Z,99209.94
2023-05-14T06:40:31.569Z,99207.59
2023-05-14T06:42:58.137Z,99202.41
2023-05-14T06:45:24.654Z,99199.53
2023-05-14T06:47:52.711Z,99203.13
2023-05-14T06:50:19.330Z,99203.72
2023-05-14T06:52:45.857Z,99201.31
2023-05-14T06:55:12.390Z,99201.09
2023-05-14T06:57:40.673Z,99198.84
2023-05-14T07:00:08.643Z,99196.72
2023-05-14T07:02:35.224Z,99197.53
2023-05-14T07:05:03.250Z,99189.22
2023-05-14T07:07:29.758Z,99190.13
2023-05-14T07:09:56.258Z,99200.03
2023-05-14T07:12:22.739Z,99193.22
2023-05-14T07:14:49.407Z,99195.72
2023-05-14T07:17:16.055Z,99193.31
2023-05-14T07:19:42.807Z,99192.84
2023-05-14T07:22:10.607Z,99192.06
2023-05-14T07:24:37.138Z,99187.41
2023-05-14T07:27:04.183Z,99182.81
2023-05-14T07:29:30.669Z,99183.97
2023-05-14T07:31:57.188Z,99182.28
2023-05-14T07:34:23.690Z,99180.50
2023-05-14T07:36:50.299Z,99177.47
2023-05-14T07:39:18.279Z,99173.88
2023-05-14T07:41:44.958Z,99167.78
2023-05-14T07:44:11.431Z,99176.22
2023-05-14T07:46:38.000Z,99172.50
2023-05-14T07:49:04.572Z,99166.78
2023-05-14T07:51:31.199Z,99160.59
2023-05-14T07:53:57.731Z,99153.59
2023-05-14T07:56:25.593Z,99159.97
2023-05-14T07:58:52.140Z,99152.47
2023-05-14T08:01:18.681Z,99157.03
2023-05-14T08:03:45.295Z,99149.44
2023-05-14T08:06:11.832Z,99144.97
2023-05-14T08:08:38.285Z,99146.84
2023-05-14T08:11:05.241Z,99150.84
2023-05-14T08:13:33.089Z,99148.47
2023-05-14T08:15:59.634Z,99143.28
2023-05-14T08:18:26.219Z,99147.50
2023-05-14T08:20:52.807Z,99150.44
2023-05-14T08:23:19.357Z,99134.38
2023-05-14T08:25:45.897Z,99138.75
2023-05-14T08:28:12.415Z,99126.63
2023-05-14T08:30:40.351Z,99123.63
2023-05-14T08:33:06.906Z,99114.47
2023-05-14T08:35:33.689Z,99120.56
2023-05-14T08:38:00.185Z,99126.44
2023-05-14T08:40:27.166Z,99118.19
2023-05-14T08:42:56.306Z,99113.22
2023-05-14T08:45:28.645Z,99115.34
2023-05-14T08:47:58.289Z,99110.09
2023-05-14T08:50:25.570Z,99118.63
2023-05-14T08:52:53.008Z,99113.72
2023-05-14T08:55:19.900Z,99117.56
2023-05-14T08:57:46.653Z,99115.84
2023-05-14T09:00:14.325Z,99111.41
2023-05-14T09:02:42.053Z,99099.50
2023-05-14T09:05:10.426Z,99098.00
2023-05-14T09:07:37.078Z,99094.44
2023-05-14T09:10:04.632Z,99094.91
2023-05-14T09:12:31.333Z,99090.47
2023-05-14T09:14:57.926Z,99084.47
2023-05-14T09:17:26.619Z,99084.34
2023-05-14T09:19:53.465Z,99088.88
2023-05-14T09:22:21.889Z,99090.22
2023-05-14T09:25:02.332Z,99097.69
2023-05-14T09:27:30.103Z,99097.97
2023-05-14T09:29:56.635Z,99090.84
2023-05-14T09:32:23.110Z,99081.16
2023-05-14T09:34:49.752Z,99082.34
2023-05-14T09:37:16.275Z,99082.50
2023-05-14T09:39:44.135Z,99076.16
2023-05-14T09:42:10.617Z,99084.69
2023-05-14T09:44:37.275Z,99072.72
2023-05-14T09:47:04.131Z,99073.31
2023-05-14T09:49:30.624Z,99071.56
2023-05-14T09:51:57.080Z,99075.63
2023-05-14T09:54:25.939Z,99087.38
2023-05-14T09:56:55.642Z,99073.44
2023-05-14T09:59:22.534Z,99078.38
2023-05-14T10:01:49.780Z,99072.13
2023-05-14T10:04:16.792Z,99065.59
2023-05-14T10:06:48.130Z,99072.09
2023-05-14T10:09:18.226Z,99071.78
2023-05-14T10:11:47.994Z,99054.44
2023-05-14T10:14:24.848Z,99065.06
2023-05-14T10:16:52.240Z,99052.00
2023-05-14T10:19:23.431Z,99071.78
2023-05-14T10:21:59.656Z,99054.84
2023-05-14T10:24:27.066Z,99048.03
2023-05-14T10:26:53.827Z,99040.84
2023-05-14T10:29:32.469Z,99055.16
2023-05-14T10:31:59.017Z,99045.94
2023-05-14T10:34:32.688Z,99052.28
2023-05-14T10:36:59.914Z,99048.34
2023-05-14T10:39:40.544Z,99050.19
2023-05-14T10:42:08.338Z,99041.22
2023-05-14T10:44:40.758Z,99035.81
2023-05-14T10:47:07.313Z,99035.97
2023-05-14T10:49:42.916Z,99027.03
2023-05-14T10:52:11.701Z,99023.38
2023-05-14T10:54:38.317Z,99019.88
2023-05-14T10:57:11.062Z,99018.81
2023-05-14T10:59:41.770Z,99019.88
2023-05-14T11:02:20.414Z,99014.03
2023-05-14T11:04:53.384Z,99021.13
2023-05-14T11:07:24.360Z,99016.78
2023-05-14T11:09:51.314Z,99018.81
2023-05-14T11:12:18.381Z,99011.09
2023-05-14T11:14:46.928Z,99007.28
2023-05-14T11:17:13.694Z,99006.91
2023-05-14T11:19:43.332Z,99011.78
2023-05-14T11:22:09.930Z,98994.59
2023-05-14T11:24:36.419Z,98997.22
2023-05-14T11:27:02.902Z,98995.78
2023-05-14T11:29:29.411Z,98997.25
2023-05-14T11:31:57.401Z,98988.69
2023-05-14T11:34:23.963Z,98994.97
2023-05-14T11:36:50.586Z,98988.00
2023-05-14T11:39:18.119Z,98989.00
2023-05-14T11:41:45.024Z,98981.06
2023-05-14T11:44:11.811Z,98978.59
2023-05-14T11:46:38.456Z,98977.50
2023-05-14T11:49:10.137Z,98969.88
2023-05-14T11:51:36.589Z,98974.13
2023-05-14T11:54:03.104Z,98970.16
2023-05-14T11:56:29.686Z,98967.53
2023-05-14T11:58:57.209Z,98958.75
2023-05-14T12:01:26.361Z,98966.41
2023-05-14T12:03:53.034Z,98961.34
2023-05-14T12:06:20.924Z,98967.31
2023-05-14T12:08:47.744Z,98953.56
2023-05-14T12:11:14.428Z,98953.31
2023-05-14T12:13:41.070Z,98946.91
2023-05-14T12:16:07.735Z,98935.84
2023-05-14T12:18:36.696Z,98945.84
2023-05-14T12:21:04.460Z,98949.53
2023-05-14T12:23:32.842Z,98936.31
2023-05-14T12:26:01.893Z,98930.16
2023-05-14T12:28:28.551Z,98927.78
2023-05-14T12:30:56.689Z,98922.34
2023-05-14T12:33:23.567Z,98926.38
2023-05-14T12:35:50.077Z,98926.09
2023-05-14T12:38:16.639Z,98933.91
2023-05-14T12:40:44.544Z,98929.28
2023-05-14T12:43:11.270Z,98917.50
2023-05-14T12:45:37.807Z,98911.47
2023-05-14T12:48:04.431Z,98921.84
2023-05-14T12:50:31.048Z,98913.06
2023-05-14T12:52:57.626Z,98904.19
2023-05-14T12:55:24.350Z,98897.53
2023-05-14T12:57:52.338Z,98884.66
2023-05-14T13:00:19.372Z,98885.78
2023-05-14T13:02:45.910Z,98890.19
2023-05-14T13:05:12.623Z,98889.50
2023-05-14T13:07:39.362Z,98887.63
2023-05-14T13:10:06.948Z,98884.63
2023-05-14T13:12:33.740Z,98875.94
2023-05-14T13:15:01.610Z,98871.91
2023-05-14T13:17:28.242Z,98871.81
2023-05-14T13:19:54.819Z,98881.28
2023-05-14T13:22:21.336Z,98871.28
2023-05-14T13:24:47.822Z,98869.63
2023-05-14T13:27:14.281Z,98871.47
2023-05-14T13:29:40.749Z,98866.34
2023-05-14T13:32:08.821Z,98861.63
2023-05-14T13:34:35.438Z,98853.81
2023-05-14T13:37:02.026Z,98858.25
2023-05-14T13:39:28.629Z,98859.59
2023-05-14T13:41:55.071Z,98856.59
2023-05-14T13:44:21.625Z,98852.34
2023-05-14T13:46:48.316Z,98851.91
2023-05-14T13:49:16.369Z,98848.28
2023-05-14T13:51:42.882Z,98846.31
2023-05-14T13:54:09.718Z,98850.03
2023-05-14T13:56:36.408Z,98842.78
2023-05-14T13:59:03.175Z,98840.34
2023-05-14T14:01:29.745Z,98838.63
2023-05-14T14:03:56.331Z,98840.06
2023-05-14T14:06:25.725Z,98848.38
2023-05-14T14:08:52.166Z,98845.06
2023-05-14T14:11:18.768Z,98836.31
2023-05-14T14:13:46.698Z,98842.72
2023-05-14T14:16:13.494Z,98843.25
2023-05-14T14:18:40.120Z,98841.16
2023-05-14T14:21:06.897Z,98833.75
2023-05-14T14:23:34.918Z,98832.38
2023-05-14T14:26:01.413Z,98835.47
2023-05-14T14:28:28.085Z,98836.16
2023-05-14T14:30:54.568Z,98845.06
2023-05-14T14:33:21.260Z,98842.13
2023-05-14T14:35:47.926Z,98841.16
2023-05-14T14:38:14.592Z,98835.91
2023-05-14T14:40:42.448Z,98838.50
2023-05-14T14:43:09.019Z,98832.72
2023-05-14T14:45:35.525Z,98830.50
2023-05-14T14:48:27.478Z,98820.56
2023-05-14T14:50:54.841Z,98826.69
2023-05-14T14:53:22.926Z,98827.09
2023-05-14T14:55:51.429Z,98828.41
2023-05-14T14:58:19.268Z,98829.97
2023-05-14T15:00:45.881Z,98841.38
2023-05-14T15:03:12.512Z,98841.25
2023-05-14T15:05:39.175Z,98846.19
2023-05-14T15:08:05.751Z,98852.88
2023-05-14T15:10:32.600Z,98862.22
2023-05-14T15:13:00.599Z,98861.56
2023-05-14T15:15:27.108Z,98866.66
2023-05-14T15:17:53.616Z,98870.94
2023-05-14T15:20:20.337Z,98880.69
2023-05-14T15:22:47.096Z,98889.22
2023-05-14T15:25:13.633Z,98894.25
2023-05-14T15:27:40.189Z,98886.69
2023-05-14T15:30:09.364Z,98889.69
2023-05-14T15:32:36.091Z,98887.72
2023-05-14T15:35:02.866Z,98886.03
2023-05-14T15:37:36.221Z,98888.66
2023-05-14T15:40:03.398Z,98891.81
2023-05-14T15:42:30.184Z,98884.72
2023-05-14T15:44:56.755Z,98887.50
2023-05-14T15:47:24.877Z,98875.41
2023-05-14T15:49:51.340Z,98878.97
2023-05-14T15:52:18.024Z,98882.22
2023-05-14T15:54:46.538Z,98875.81
2023-05-14T15:57:13.108Z,98882.38
2023-05-14T15:59:39.750Z,98878.47
2023-05-14T16:02:06.860Z,98874.88
2023-05-14T16:04:34.784Z,98871.75
2023-05-14T16:07:02.281Z,98872.13
2023-05-14T16:09:28.783Z,98867.00
2023-05-14T16:11:55.355Z,98860.16
2023-05-14T16:14:21.875Z,98859.94
2023-05-14T16:16:48.563Z,98859.94
2023-05-14T16:19:15.333Z,98864.41
2023-05-14T16:21:43.737Z,98865.66
2023-05-14T16:24:10.297Z,98867.75
2023-05-14T16:26:36.801Z,98862.25
2023-05-14T16:29:04.140Z,98860.75
2023-05-14T16:31:30.841Z,98857.56
2023-05-14T16:33:57.491Z,98851.50
2023-05-14T16:36:25.410Z,98846.22
2023-05-14T16:39:06.610Z,98839.28
2023-05-14T16:41:34.302Z,98849.16
2023-05-14T16:44:00.746Z,98836.94
2023-05-14T16:46:27.501Z,98829.91
2023-05-14T16:48:54.047Z,98825.66
2023-05-14T16:51:20.611Z,98833.84
2023-05-14T16:53:47.176Z,98841.97
2023-05-14T16:56:15.055Z,98829.75
2023-05-14T16:58:41.633Z,98838.81
2023-05-14T17:01:09.649Z,98831.78
2023-05-14T17:03:36.907Z,98831.13
2023-05-14T17:06:03.758Z,98824.41
2023-05-14T17:08:30.428Z,98824.06
2023-05-14T17:10:56.936Z,98822.41
2023-05-14T17:13:24.861Z,98821.50
2023-05-14T17:15:51.500Z,98815.22
2023-05-14T17:18:18.082Z,98821.56
2023-05-14T17:20:44.689Z,98822.28
2023-05-14T17:23:11.208Z,98817.13
2023-05-14T17:25:37.753Z,98816.34
2023-05-14T17:28:04.597Z,98815.84
2023-05-14T17:30:32.449Z,98818.66
2023-05-14T17:33:00.271Z,98816.00
2023-05-14T17:35:26.834Z,98817.00
2023-05-14T17:37:53.583Z,98814.22
2023-05-14T17:40:20.180Z,98820.44
2023-05-14T17:42:46.701Z,98815.63
2023-05-14T17:45:13.556Z,98818.81
2023-05-14T17:47:41.400Z,98817.00
2023-05-14T17:50:09.000Z,98824.69
2023-05-14T17:52:35.703Z,98826.63
2023-05-14T17:55:02.391Z,98826.19
2023-05-14T17:57:29.170Z,98825.66
2023-05-14T17:59:55.738Z,98828.59
2023-05-14T18:02:22.279Z,98826.84
2023-05-14T18:04:50.132Z,98828.75
2023-05-14T18:07:16.661Z,98835.47
2023-05-14T18:09:43.159Z,98829.69
2023-05-14T18:12:09.963Z,98836.16
2023-05-14T18:14:36.577Z,98826.56
2023-05-14T18:17:03.292Z,98832.28
2023-05-14T18:19:29.955Z,98828.56
2023-05-14T18:21:57.963Z,98829.63
2023-05-14T18:24:24.560Z,98833.44
2023-05-14T18:26:51.311Z,98838.78
2023-05-14T18:29:17.982Z,98835.75
2023-05-14T18:31:44.516Z,98832.47
2023-05-14T18:34:11.166Z,98833.75
2023-05-14T18:36:37.676Z,98838.97
2023-05-14T18:39:05.489Z,98839.75
2023-05-14T18:41:31.978Z,98838.72
2023-05-14T18:43:58.469Z,98831.53
2023-05-14T18:46:25.351Z,98841.09
2023-05-14T18:48:51.921Z,98831.59
2023-05-14T18:51:18.427Z,98842.00
2023-05-14T18:53:45.099Z,98840.91
2023-05-14T18:56:13.030Z,98844.28
2023-05-14T18:58:39.730Z,98846.09
2023-05-14T19:01:06.472Z,98838.81
2023-05-14T19:03:33.184Z,98849.75
2023-05-14T19:05:59.780Z,98855.38
2023-05-14T19:08:26.669Z,98851.63
2023-05-14T19:10:53.214Z,98853.63
2023-05-14T19:13:21.345Z,98861.16
2023-05-14T19:15:47.913Z,98849.09
2023-05-14T19:18:14.559Z,98859.44
2023-05-14T19:20:41.106Z,98857.38
2023-05-14T19:23:07.642Z,98863.41
2023-05-14T19:25:36.694Z,98858.72
2023-05-14T19:28:03.398Z,98872.41
2023-05-14T19:30:31.357Z,98868.94
2023-05-14T19:32:58.136Z,98865.31
2023-05-14T19:35:25.029Z,98859.06
2023-05-14T19:37:51.725Z,98868.28
2023-05-14T19:40:18.269Z,98863.91
2023-05-14T19:42:44.783Z,98862.91
2023-05-14T19:45:11.603Z,98864.75
2023-05-14T19:47:39.648Z,98864.91
2023-05-14T19:50:07.056Z,98865.97
2023-05-14T19:52:33.716Z,98864.63
2023-05-14T19:55:00.359Z,98864.78
2023-05-14T19:57:26.832Z,98866.00
2023-05-14T19:59:53.343Z,98861.91
2023-05-14T20:02:19.897Z,98855.91
2023-05-14T20:04:47.961Z,98857.03
2023-05-14T20:07:15.224Z,98850.66
2023-05-14T20:09:42.163Z,98841.41
2023-05-14T20:12:09.418Z,98849.72
2023-05-14T20:14:36.086Z,98838.50
2023-05-14T20:17:02.688Z,98832.47
2023-05-14T20:19:29.359Z,98836.66
2023-05-14T20:21:57.265Z,98834.88
2023-05-14T20:24:23.976Z,98821.25
2023-05-14T20:26:50.553Z,98818.84
2023-05-14T20:29:17.125Z,98819.09
2023-05-14T20:31:43.602Z,98810.69
2023-05-14T20:34:10.102Z,98823.78
2023-05-14T20:36:36.611Z,98826.50
2023-05-14T20:39:04.618Z,98821.94
2023-05-14T20:41:31.051Z,98827.66
2023-05-14T20:43:57.617Z,98848.19
2023-05-14T20:46:24.141Z,98838.53
2023-05-14T20:48:50.783Z,98825.81
2023-05-14T20:51:17.283Z,98833.97
2023-05-14T20:53:43.753Z,98833.88
2023-05-14T20:56:11.632Z,98823.66
2023-05-14T20:58:38.316Z,98819.69
2023-05-14T21:01:04.898Z,98812.53
2023-05-14T21:03:31.525Z,98811.75
2023-05-14T21:05:58.142Z,98808.69
2023-05-14T21:08:24.713Z,98814.94
2023-05-14T21:10:51.291Z,98809.81
2023-05-14T21:13:19.144Z,98806.41
2023-05-14T21:15:45.883Z,98801.84
2023-05-14T21:18:12.972Z,98802.41
2023-05-14T21:20:39.829Z,98798.66
2023-05-14T21:23:06.501Z,98803.53
2023-05-14T21:25:33.995Z,98806.44
2023-05-14T21:28:00.521Z,98802.38
2023-05-14T21:30:28.546Z,98810.28
2023-05-14T21:32:55.118Z,98813.13
2023-05-14T21:35:21.704Z,98816.16
2023-05-14T21:37:48.233Z,98818.09
2023-05-14T21:40:14.825Z,98809.69
2023-05-14T21:42:41.384Z,98813.28
2023-05-14T21:45:08.742Z,98808.00
2023-05-14T21:47:37.145Z,98807.22
2023-05-14T21:50:04.966Z,98807.56
2023-05-14T21:52:31.426Z,98805.03
2023-05-14T21:54:57.952Z,98805.38
2023-05-14T21:57:26.139Z,98804.78
2023-05-14T21:59:53.650Z,98802.41
2023-05-14T22:02:20.381Z,98804.31
2023-05-14T22:04:48.459Z,98801.41
2023-05-14T22:07:15.010Z,98806.97
2023-05-14T22:09:41.554Z,98810.47
2023-05-14T22:12:08.418Z,98803.44
2023-05-14T22:14:34.918Z,98806.63
2023-05-14T22:17:01.477Z,98804.72
2023-05-14T22:19:28.379Z,98797.53
2023-05-14T22:21:56.256Z,98801.13
2023-05-14T22:24:22.705Z,98803.28
2023-05-14T22:26:49.263Z,98799.75
2023-05-14T22:29:15.961Z,98798.38
2023-05-14T22:31:42.961Z,98792.22
2023-05-14T22:34:09.481Z,98790.00
2023-05-14T22:36:36.053Z,98787.81
2023-05-14T22:39:04.263Z,98791.09
2023-05-14T22:41:30.868Z,98785.72
2023-05-14T22:43:57.372Z,98796.75
2023-05-14T22:46:24.122Z,98788.81
2023-05-14T22:48:50.646Z,98783.91
2023-05-14T22:51:17.300Z,98786.00
2023-05-14T22:53:43.824Z,98779.78
2023-05-14T22:56:11.653Z,98772.16
2023-05-14T22:58:38.144Z,98774.06
2023-05-14T23:01:04.742Z,98783.66
2023-05-14T23:03:31.245Z,98779.88
2023-05-14T23:05:57.781Z,98772.38
2023-05-14T23:08:24.344Z,98775.28
2023-05-14T23:10:50.958Z,98774.34
2023-05-14T23:13:18.935Z,98768.63
2023-05-14T23:15:45.635Z,98776.66
2023-05-14T23:18:15.380Z,98765.16
2023-05-14T23:20:41.891Z,98768.88
2023-05-14T23:23:08.352Z,98767.78
2023-05-14T23:25:35.052Z,98760.59
2023-05-14T23:28:01.589Z,98755.69
2023-05-14T23:30:29.430Z,98754.41
2023-05-14T23:32:55.942Z,98758.13
2023-05-14T23:35:22.685Z,98749.34
2023-05-14T23:37:49.755Z,98754.47
2023-05-14T23:40:16.438Z,98753.84
2023-05-14T23:42:43.488Z,98743.63
2023-05-14T23:45:11.088Z,98748.91
2023-05-14T23:47:39.115Z,98746.03
2023-05-14T23:50:06.502Z,98742.84
2023-05-14T23:52:33.013Z,98739.53
2023-05-14T23:55:00.213Z,98739.69
2023-05-14T23:57:26.890Z,98743.50
2023-05-14T23:59:53.432Z,98734.91
